Time;durP1;ratioP1;P1;durP2;ratioP2;P2;SDS_P1;SDS_P2;PMS_P1;PMS_P2;Temp;Humidity;BMP_temperature;BMP_pressure;BME280_temperature;BME280_humidity;BME280_pressure;Samples;Min_cycle;Max_cycle;Signal;HPM_P1;HPM_P2
2022/01/19 00:02:09;;;;;;;8.23;1.98;;;22.10;99.90;;;;;;4971568;28;20061;-74
2022/01/19 00:04:37;;;;;;;13.65;1.92;;;22.10;99.90;;;;;;4980285;28;20022;-74
2022/01/19 00:07:04;;;;;;;10.98;3.05;;;22.00;99.90;;;;;;4971795;28;20077;-74
2022/01/19 00:09:31;;;;;;;6.68;2.05;;;22.00;99.90;;;;;;4969559;28;20033;-74
2022/01/19 00:11:59;;;;;;;6.00;2.10;;;22.00;99.90;;;;;;4964692;28;20102;-74
2022/01/19 00:14:27;;;;;;;12.80;2.88;;;21.90;99.90;;;;;;4971492;28;20022;-72
2022/01/19 00:16:54;;;;;;;8.20;1.90;;;22.00;99.90;;;;;;4967221;28;20046;-72
2022/01/19 00:19:22;;;;;;;8.55;2.53;;;22.00;99.90;;;;;;4964256;28;20024;-74
2022/01/19 00:21:49;;;;;;;9.50;2.63;;;22.00;99.90;;;;;;4966175;28;20031;-73
2022/01/19 00:24:16;;;;;;;10.40;1.95;;;22.10;99.90;;;;;;4968834;28;20109;-74
2022/01/19 00:26:44;;;;;;;7.78;2.03;;;22.10;99.90;;;;;;4970762;28;20037;-74
2022/01/19 00:29:11;;;;;;;10.45;2.35;;;22.20;99.90;;;;;;4971064;28;20034;-74
2022/01/19 00:31:38;;;;;;;10.25;2.22;;;22.20;99.90;;;;;;4968572;28;20140;-74
2022/01/19 00:34:06;;;;;;;10.43;1.83;;;22.20;99.90;;;;;;4970459;28;20453;-75
2022/01/19 00:36:33;;;;;;;7.30;1.60;;;22.30;99.90;;;;;;4975144;28;20351;-74
2022/01/19 00:39:00;;;;;;;8.25;2.47;;;22.20;99.90;;;;;;4974475;28;20034;-74
2022/01/19 00:41:28;;;;;;;7.25;1.80;;;22.30;99.90;;;;;;4983005;28;20042;-74
2022/01/19 00:43:55;;;;;;;7.05;1.65;;;22.40;99.90;;;;;;4978169;28;20089;-75
2022/01/19 00:46:22;;;;;;;6.40;3.38;;;22.30;99.90;;;;;;4957411;28;20236;-76
2022/01/19 00:48:49;;;;;;;6.25;2.55;;;22.30;99.90;;;;;;4971848;28;20030;-76
2022/01/19 00:51:17;;;;;;;14.85;2.67;;;22.20;99.90;;;;;;4971951;28;20502;-75
2022/01/19 00:53:44;;;;;;;12.73;2.83;;;22.30;99.90;;;;;;4984944;28;20228;-73
2022/01/19 00:56:11;;;;;;;8.57;1.92;;;22.30;99.90;;;;;;4976644;28;20039;-75
2022/01/19 00:58:39;;;;;;;8.20;2.97;;;22.20;99.90;;;;;;4973860;28;20340;-75
2022/01/19 01:01:06;;;;;;;9.75;1.52;;;22.30;99.90;;;;;;4969559;28;20054;-74
2022/01/19 01:03:33;;;;;;;6.55;2.80;;;22.30;99.90;;;;;;4973349;28;20053;-74
2022/01/19 01:06:01;;;;;;;10.40;2.20;;;22.30;99.90;;;;;;4971354;28;20501;-75
2022/01/19 01:08:28;;;;;;;9.82;2.55;;;22.30;99.90;;;;;;4982029;28;20054;-73
2022/01/19 01:10:56;;;;;;;5.65;1.63;;;22.40;99.90;;;;;;4964690;28;20041;-74
2022/01/19 01:15:23;;;;;;;13.70;2.53;;;22.40;99.90;;;;;;4976438;28;20026;-74
2022/01/19 01:16:18;;;;;;;9.38;4.30;;;22.40;99.90;;;;;;4973288;28;20397;-73
2022/01/19 01:18:46;;;;;;;8.55;1.95;;;22.40;99.90;;;;;;4977726;28;20165;-74
2022/01/19 01:21:13;;;;;;;10.00;2.70;;;22.50;99.90;;;;;;4965401;28;20036;-74
2022/01/19 01:23:41;;;;;;;9.43;2.33;;;22.50;99.90;;;;;;4971064;28;20027;-72
2022/01/19 01:26:09;;;;;;;9.40;2.40;;;22.60;99.90;;;;;;4969882;28;20157;-73
2022/01/19 01:28:36;;;;;;;8.32;2.22;;;22.60;99.90;;;;;;4974225;28;20573;-73
2022/01/19 01:31:07;;;;;;;7.18;2.00;;;22.70;99.90;;;;;;4972127;28;20018;-75
2022/01/19 01:33:34;;;;;;;9.93;1.70;;;22.90;99.90;;;;;;4973998;28;20443;-74
2022/01/19 01:36:02;;;;;;;10.65;2.78;;;23.00;99.90;;;;;;4970335;28;20050;-74
2022/01/19 01:38:30;;;;;;;8.95;2.00;;;23.00;99.90;;;;;;4973904;28;20042;-75
2022/01/19 01:40:57;;;;;;;9.52;2.85;;;23.20;99.90;;;;;;4971766;28;20504;-74
2022/01/19 01:43:25;;;;;;;5.85;1.60;;;23.30;99.90;;;;;;4987637;28;20061;-75
2022/01/19 01:45:59;;;;;;;10.68;1.98;;;23.50;99.90;;;;;;4972844;28;20043;-75
2022/01/19 01:48:27;;;;;;;9.73;2.35;;;23.50;99.90;;;;;;4971280;28;20034;-76
2022/01/19 01:53:39;;;;;;;6.53;1.90;;;23.50;99.90;;;;;;4969437;28;20058;-75
2022/01/19 01:56:16;;;;;;;7.68;1.55;;;23.40;99.90;;;;;;4971981;28;20039;-76
2022/01/19 01:58:49;;;;;;;10.15;2.55;;;23.40;99.90;;;;;;4976234;28;20504;-75
2022/01/19 02:01:17;;;;;;;7.75;2.28;;;23.50;99.90;;;;;;4967847;28;20058;-74
2022/01/19 02:03:46;;;;;;;5.75;2.35;;;23.60;99.90;;;;;;4974930;28;20034;-76
2022/01/19 02:21:36;;;;;;;11.20;1.75;;;23.70;99.90;;;;;;4970927;28;20090;-75
2022/01/19 02:22:13;;;;;;;6.47;1.50;;;23.60;99.90;;;;;;4970666;28;20081;-76
2022/01/19 02:24:44;;;;;;;5.65;1.30;;;23.50;99.90;;;;;;4973410;28;20359;-78
2022/01/19 02:30:39;;;;;;;7.90;1.63;;;23.80;99.90;;;;;;4970096;28;20053;-77
2022/01/19 02:41:11;;;;;;;5.33;1.30;;;23.60;99.90;;;;;;4967813;28;22035;-74
2022/01/19 02:43:45;;;;;;;5.55;1.15;;;23.70;99.90;;;;;;4970145;28;20498;-75
2022/01/19 02:46:41;;;;;;;10.30;1.95;;;23.80;99.90;;;;;;4965641;28;20035;-75
2022/01/19 02:49:16;;;;;;;7.07;1.77;;;24.00;99.90;;;;;;4970445;28;20022;-74
2022/01/19 02:51:49;;;;;;;12.80;1.60;;;23.80;99.90;;;;;;4972238;28;20086;-75
2022/01/19 02:54:20;;;;;;;10.43;1.80;;;23.70;99.90;;;;;;4967036;28;20046;-74
2022/01/19 02:56:51;;;;;;;6.65;1.90;;;23.80;99.90;;;;;;4970170;28;20035;-76
2022/01/19 02:59:27;;;;;;;4.97;0.77;;;24.10;99.90;;;;;;4970616;28;20030;-77
2022/01/19 03:10:10;;;;;;;6.28;0.85;;;25.00;99.90;;;;;;4970491;28;20549;-78
2022/01/19 03:12:37;;;;;;;9.13;1.50;;;25.10;99.90;;;;;;4964777;28;20062;-74
2022/01/19 03:15:07;;;;;;;4.95;1.00;;;24.90;99.90;;;;;;4963107;28;20497;-74
2022/01/19 03:17:34;;;;;;;5.95;1.10;;;24.60;99.90;;;;;;4964901;28;20061;-76
2022/01/19 03:20:02;;;;;;;4.55;1.50;;;24.40;99.90;;;;;;4963997;28;20114;-75
2022/01/19 03:22:36;;;;;;;8.48;1.17;;;24.40;99.90;;;;;;4970958;28;20030;-77
2022/01/19 03:25:11;;;;;;;6.18;1.20;;;24.40;99.90;;;;;;4976851;28;20423;-76
2022/01/19 03:27:46;;;;;;;3.97;0.60;;;24.50;99.90;;;;;;4967840;28;20159;-76
2022/01/19 03:30:14;;;;;;;4.38;0.70;;;24.60;99.90;;;;;;4972444;28;20127;-75
2022/01/19 03:32:42;;;;;;;6.07;1.20;;;24.70;99.90;;;;;;4966253;28;20034;-76
2022/01/19 03:35:12;;;;;;;3.53;1.35;;;24.70;99.90;;;;;;4976667;28;20374;-76
2022/01/19 03:37:40;;;;;;;5.40;1.10;;;24.70;99.90;;;;;;4976745;28;20137;-76
2022/01/19 03:40:09;;;;;;;7.03;0.95;;;24.70;99.90;;;;;;4975337;28;20282;-77
2022/01/19 03:42:37;;;;;;;5.85;1.88;;;24.60;99.90;;;;;;4976569;28;20033;-77
2022/01/19 03:45:09;;;;;;;11.30;1.67;;;24.50;99.90;;;;;;4973616;28;20019;-76
2022/01/19 03:50:25;;;;;;;3.25;0.82;;;24.70;99.90;;;;;;4956449;28;20041;-76
2022/01/19 03:52:52;;;;;;;5.95;1.45;;;24.80;99.90;;;;;;4979616;28;20034;-75
2022/01/19 03:55:20;;;;;;;4.90;1.52;;;24.90;99.90;;;;;;4988029;28;20080;-76
2022/01/19 03:57:47;;;;;;;9.85;1.30;;;24.70;99.90;;;;;;4975644;28;20201;-76
2022/01/19 04:00:15;;;;;;;2.20;0.65;;;24.70;99.90;;;;;;4969867;28;20019;-77
2022/01/19 04:02:42;;;;;;;11.45;1.17;;;24.60;99.90;;;;;;4972293;28;20030;-77
2022/01/19 04:05:19;;;;;;;2.15;0.70;;;24.50;99.90;;;;;;4973936;28;20023;-77
2022/01/19 04:07:46;;;;;;;2.80;0.82;;;24.40;99.90;;;;;;4969413;28;21610;-76
2022/01/19 04:10:14;;;;;;;11.65;1.20;;;24.50;99.90;;;;;;4964539;28;20031;-73
2022/01/19 04:12:55;;;;;;;6.22;0.90;;;24.50;99.90;;;;;;4965850;28;20059;-78
2022/01/19 04:15:23;;;;;;;4.63;0.88;;;24.50;99.90;;;;;;4971758;28;20379;-76
2022/01/19 04:17:53;;;;;;;7.50;1.80;;;24.40;99.90;;;;;;4969755;28;20039;-74
2022/01/19 04:20:25;;;;;;;5.15;0.70;;;24.50;99.90;;;;;;4988361;28;20119;-74
2022/01/19 04:22:52;;;;;;;6.47;1.08;;;24.40;99.90;;;;;;4967479;28;20042;-75
2022/01/19 04:25:19;;;;;;;10.57;2.05;;;24.20;99.90;;;;;;4975297;28;20045;-75
2022/01/19 04:27:47;;;;;;;5.93;1.25;;;23.70;99.90;;;;;;4973831;28;20041;-75
2022/01/19 04:30:15;;;;;;;8.40;1.50;;;23.20;99.90;;;;;;4973917;28;20035;-73
2022/01/19 04:35:28;;;;;;;3.80;0.90;;;22.20;99.90;;;;;;4972505;28;20101;-75
2022/01/19 04:38:24;;;;;;;9.50;1.08;;;22.10;99.90;;;;;;4972463;28;20034;-73
2022/01/19 05:07:59;;;;;;;3.13;0.55;;;20.80;99.90;;;;;;4972399;28;20046;-72
2022/01/19 05:15:39;;;;;;;4.22;0.82;;;20.90;99.90;;;;;;4977244;28;20121;-73
2022/01/19 05:18:07;;;;;;;9.13;2.25;;;21.00;99.90;;;;;;4968738;28;20030;-75
2022/01/19 05:20:35;;;;;;;4.80;1.55;;;21.10;99.90;;;;;;4970065;28;20026;-73
2022/01/19 05:23:02;;;;;;;8.63;0.77;;;21.10;99.90;;;;;;4969273;28;20090;-72
2022/01/19 05:25:30;;;;;;;5.63;0.70;;;21.20;99.90;;;;;;4971366;28;20052;-76
2022/01/19 05:27:57;;;;;;;5.25;0.95;;;21.10;99.90;;;;;;4978318;28;20031;-75
2022/01/19 05:30:24;;;;;;;6.03;0.80;;;21.10;99.90;;;;;;4969717;28;20042;-77
2022/01/19 05:32:55;;;;;;;7.00;0.65;;;21.10;99.90;;;;;;4970580;28;20035;-75
2022/01/19 05:35:24;;;;;;;10.65;1.75;;;21.00;99.90;;;;;;4973517;28;20034;-74
2022/01/19 05:37:52;;;;;;;4.75;0.73;;;20.90;99.90;;;;;;4968593;28;20118;-74
2022/01/19 05:40:19;;;;;;;6.53;2.42;;;20.80;99.90;;;;;;4972402;28;20023;-73
2022/01/19 05:42:48;;;;;;;12.32;1.30;;;20.80;99.90;;;;;;4969622;28;20053;-75
2022/01/19 05:45:17;;;;;;;6.63;1.15;;;20.80;99.90;;;;;;4975180;28;20070;-73
2022/01/19 05:47:48;;;;;;;6.53;1.60;;;20.80;99.90;;;;;;4972318;28;20022;-75
2022/01/19 05:50:15;;;;;;;3.75;0.98;;;20.90;99.90;;;;;;4974606;28;20030;-74
2022/01/19 05:52:43;;;;;;;9.70;1.27;;;20.90;99.90;;;;;;4970035;28;20062;-73
2022/01/19 05:55:10;;;;;;;6.75;1.30;;;21.00;99.90;;;;;;4969883;28;20426;-73
2022/01/19 05:57:39;;;;;;;5.43;1.13;;;20.90;99.90;;;;;;4964189;28;20089;-74
2022/01/19 06:00:07;;;;;;;6.65;1.23;;;20.90;99.90;;;;;;4967679;28;20022;-73
2022/01/19 06:02:35;;;;;;;6.53;1.52;;;21.00;99.90;;;;;;4968566;28;20130;-73
2022/01/19 06:05:04;;;;;;;5.93;1.23;;;21.00;99.90;;;;;;4967455;28;20037;-74
2022/01/19 06:07:40;;;;;;;11.73;1.45;;;21.10;99.90;;;;;;4965974;28;20027;-75
2022/01/19 06:10:10;;;;;;;;;;;21.20;99.90;;;;;;4985737;28;20078;-77
2022/01/19 06:12:38;;;;;;;7.68;1.63;;;21.30;99.90;;;;;;4976767;28;19910;-76
2022/01/19 06:15:07;;;;;;;6.40;1.88;;;21.40;99.90;;;;;;4972313;28;20045;-75
2022/01/19 06:17:34;;;;;;;3.80;0.75;;;21.40;99.90;;;;;;4969446;28;20034;-77
2022/01/19 06:20:02;;;;;;;5.80;1.40;;;21.30;99.90;;;;;;4965514;28;20489;-77
2022/01/19 06:22:29;;;;;;;8.02;1.40;;;21.40;99.90;;;;;;4967592;28;20045;-75
2022/01/19 06:24:57;;;;;;;11.45;1.90;;;21.40;99.90;;;;;;4972171;28;20097;-74
2022/01/19 06:27:24;;;;;;;6.15;1.10;;;21.30;99.90;;;;;;4973113;28;20048;-75
2022/01/19 06:29:51;;;;;;;8.40;1.13;;;21.00;99.90;;;;;;4985712;28;20050;-74
2022/01/19 06:32:19;;;;;;;6.00;1.38;;;20.90;99.90;;;;;;4972645;28;20113;-74
2022/01/19 06:34:46;;;;;;;7.07;1.33;;;20.80;99.90;;;;;;4979667;28;20096;-74
2022/01/19 06:37:13;;;;;;;4.63;1.20;;;20.60;99.90;;;;;;4973793;28;20496;-75
2022/01/19 06:39:41;;;;;;;6.45;1.38;;;20.50;99.90;;;;;;4972380;28;20438;-75
2022/01/19 06:42:08;;;;;;;9.63;1.90;;;20.40;99.90;;;;;;4968648;28;20082;-76
2022/01/19 06:44:36;;;;;;;4.50;1.00;;;20.40;99.90;;;;;;4976417;28;20386;-77
2022/01/19 06:47:03;;;;;;;5.25;1.08;;;20.40;99.90;;;;;;4973519;28;20061;-74
2022/01/19 06:49:31;;;;;;;6.03;0.93;;;20.30;99.90;;;;;;4981169;28;20389;-75
2022/01/19 06:51:58;;;;;;;10.02;1.75;;;20.20;99.90;;;;;;4976095;28;20031;-75
2022/01/19 06:54:25;;;;;;;10.13;2.28;;;20.10;99.90;;;;;;4977013;28;20122;-75
2022/01/19 06:56:53;;;;;;;5.78;1.10;;;20.20;99.90;;;;;;4973302;28;20053;-76
2022/01/19 06:59:20;;;;;;;6.50;1.30;;;20.20;99.90;;;;;;4966481;28;20019;-73
2022/01/19 07:01:47;;;;;;;5.25;1.17;;;20.30;99.90;;;;;;4969350;28;20041;-74
2022/01/19 07:04:16;;;;;;;5.53;1.30;;;20.40;99.90;;;;;;4971897;28;20500;-75
2022/01/19 07:06:44;;;;;;;7.07;1.70;;;20.40;99.90;;;;;;4970819;28;20045;-75
2022/01/19 07:09:11;;;;;;;5.78;0.90;;;20.50;99.90;;;;;;4974363;28;21602;-74
2022/01/19 07:11:39;;;;;;;8.18;1.58;;;20.60;99.90;;;;;;4968399;28;20038;-73
2022/01/19 07:14:08;;;;;;;7.25;1.98;;;20.70;99.90;;;;;;4966198;28;20066;-74
2022/01/19 07:16:36;;;;;;;3.78;1.90;;;20.70;99.90;;;;;;4972116;28;20023;-73
2022/01/19 07:19:03;;;;;;;5.65;1.00;;;20.70;99.90;;;;;;4969763;28;20039;-74
2022/01/19 07:21:30;;;;;;;14.52;2.97;;;20.70;99.90;;;;;;4976418;28;20089;-74
2022/01/19 07:23:58;;;;;;;9.70;1.85;;;20.80;99.90;;;;;;4970356;28;20370;-74
2022/01/19 07:26:25;;;;;;;5.03;1.55;;;20.80;99.90;;;;;;4964458;28;20026;-74
2022/01/19 07:28:52;;;;;;;12.80;2.25;;;20.70;99.90;;;;;;4975352;28;20541;-74
2022/01/19 07:31:20;;;;;;;7.38;1.35;;;20.70;99.90;;;;;;4968983;28;20026;-74
2022/01/19 07:33:47;;;;;;;5.53;1.38;;;20.70;99.90;;;;;;4974097;28;20035;-73
2022/01/19 07:36:15;;;;;;;10.10;2.08;;;20.70;99.90;;;;;;4968523;28;20039;-74
2022/01/19 07:38:43;;;;;;;7.10;1.23;;;20.70;99.90;;;;;;4968665;28;20030;-73
2022/01/19 07:41:10;;;;;;;6.18;1.60;;;20.70;99.90;;;;;;4971041;28;20124;-74
2022/01/19 07:43:40;;;;;;;2.38;0.80;;;20.70;99.90;;;;;;4971079;28;20027;-73
2022/01/19 07:46:08;;;;;;;6.90;2.13;;;20.60;99.90;;;;;;4970664;28;20106;-73
2022/01/19 07:48:35;;;;;;;7.55;1.67;;;20.60;99.90;;;;;;4981599;28;20037;-74
2022/01/19 07:51:02;;;;;;;6.70;2.83;;;20.60;99.90;;;;;;4969559;28;20485;-74
2022/01/19 07:53:30;;;;;;;6.68;1.52;;;20.60;99.90;;;;;;4972408;28;20102;-74
2022/01/19 07:55:57;;;;;;;7.78;1.45;;;20.60;99.90;;;;;;4972077;28;20101;-74
2022/01/19 07:58:24;;;;;;;10.00;2.83;;;20.50;99.90;;;;;;4969650;28;20054;-74
2022/01/19 08:00:52;;;;;;;5.93;1.10;;;20.50;99.90;;;;;;4968087;28;20037;-74
2022/01/19 08:03:19;;;;;;;7.05;1.40;;;20.40;99.90;;;;;;4971159;28;20061;-75
2022/01/19 08:05:46;;;;;;;8.32;1.63;;;20.40;99.90;;;;;;4978197;28;20053;-74
2022/01/19 08:08:14;;;;;;;17.73;2.00;;;20.40;99.90;;;;;;4971594;28;20034;-74
2022/01/19 08:10:42;;;;;;;7.10;1.33;;;20.40;99.90;;;;;;4968663;28;20030;-74
2022/01/19 08:13:11;;;;;;;9.55;1.67;;;20.40;99.90;;;;;;4965023;28;20026;-75
2022/01/19 08:15:39;;;;;;;7.05;1.52;;;20.40;99.90;;;;;;4963800;28;20050;-74
2022/01/19 08:18:06;;;;;;;8.35;1.63;;;20.40;99.90;;;;;;4972193;28;20117;-75
2022/01/19 08:20:34;;;;;;;4.55;1.20;;;20.40;99.90;;;;;;4975381;28;20439;-75
2022/01/19 08:23:03;;;;;;;7.07;1.90;;;20.30;99.90;;;;;;4968270;28;20027;-75
2022/01/19 08:25:31;;;;;;;10.02;1.42;;;20.30;99.90;;;;;;4970111;28;20027;-75
2022/01/19 08:27:58;;;;;;;9.13;1.20;;;20.20;99.90;;;;;;4974884;28;20465;-73
2022/01/19 08:30:25;;;;;;;8.50;2.22;;;20.20;99.90;;;;;;4964869;28;20050;-73
2022/01/19 08:32:53;;;;;;;4.95;0.90;;;20.20;99.90;;;;;;4969811;28;20023;-74
2022/01/19 08:35:20;;;;;;;4.68;0.90;;;20.30;99.90;;;;;;4966270;28;20027;-74
2022/01/19 08:37:48;;;;;;;7.38;1.23;;;20.20;99.90;;;;;;4966141;28;20118;-74
2022/01/19 08:40:25;;;;;;;10.45;1.58;;;20.20;99.90;;;;;;4968479;28;20039;-74
2022/01/19 08:42:53;;;;;;;7.43;1.20;;;20.20;99.90;;;;;;4967475;28;20097;-74
2022/01/19 08:45:21;;;;;;;9.90;1.17;;;20.20;99.90;;;;;;4981110;28;20026;-74
2022/01/19 08:47:48;;;;;;;9.25;1.55;;;20.20;99.90;;;;;;4972287;28;20030;-73
2022/01/19 08:50:16;;;;;;;5.32;1.52;;;20.10;99.90;;;;;;4968493;28;20385;-75
2022/01/19 08:52:45;;;;;;;7.55;1.65;;;20.10;99.90;;;;;;4967817;28;20478;-73
2022/01/19 08:55:13;;;;;;;8.43;1.05;;;20.10;99.90;;;;;;4970846;28;20058;-73
2022/01/19 08:57:40;;;;;;;6.63;1.15;;;20.10;99.90;;;;;;4966923;28;20101;-73
2022/01/19 09:00:12;;;;;;;5.32;0.95;;;20.00;99.90;;;;;;4971049;28;20019;-73
2022/01/19 09:02:40;;;;;;;11.93;1.80;;;20.00;99.90;;;;;;4965153;28;20129;-73
2022/01/19 09:05:08;;;;;;;13.50;1.38;;;20.10;99.90;;;;;;4971055;28;20448;-74
2022/01/19 09:07:36;;;;;;;9.63;1.83;;;20.10;99.90;;;;;;4966556;28;20085;-73
2022/01/19 09:10:06;;;;;;;6.05;1.88;;;20.10;99.90;;;;;;4971534;28;20034;-74
2022/01/19 09:12:34;;;;;;;6.47;1.42;;;20.10;99.90;;;;;;4975803;28;20113;-74
2022/01/19 09:15:02;;;;;;;4.32;0.88;;;20.00;99.90;;;;;;4967699;28;20026;-74
2022/01/19 09:17:29;;;;;;;7.85;1.20;;;20.00;99.90;;;;;;4970466;28;20046;-74
2022/01/19 09:19:57;;;;;;;7.00;1.02;;;19.90;99.90;;;;;;4978625;28;20138;-73
2022/01/19 09:22:24;;;;;;;3.88;1.77;;;20.00;99.90;;;;;;4971959;28;20026;-73
2022/01/19 09:24:52;;;;;;;8.00;1.13;;;19.90;99.90;;;;;;4974213;28;20023;-74
2022/01/19 09:27:20;;;;;;;7.00;0.80;;;20.00;99.90;;;;;;4967407;28;20470;-75
2022/01/19 09:29:48;;;;;;;7.60;1.27;;;19.90;99.90;;;;;;4971127;28;20054;-74
2022/01/19 09:32:15;;;;;;;4.63;0.85;;;19.80;99.90;;;;;;4972277;28;20114;-73
2022/01/19 09:34:49;;;;;;;4.50;1.30;;;19.80;99.90;;;;;;4973049;28;20117;-74
2022/01/19 09:37:19;;;;;;;11.13;1.05;;;19.80;99.90;;;;;;4978276;28;20038;-75
2022/01/19 09:39:46;;;;;;;4.63;0.80;;;19.70;99.90;;;;;;4978041;28;20024;-75
2022/01/19 09:42:14;;;;;;;4.18;1.40;;;19.70;99.90;;;;;;4969053;28;20035;-75
2022/01/19 09:44:41;;;;;;;7.72;1.27;;;19.70;99.90;;;;;;4974568;28;20023;-75
2022/01/19 09:47:09;;;;;;;10.90;1.83;;;19.70;99.90;;;;;;4981113;28;20030;-75
2022/01/19 09:49:36;;;;;;;7.45;1.55;;;19.70;99.90;;;;;;4979040;28;20034;-75
2022/01/19 09:52:05;;;;;;;6.55;1.98;;;19.70;99.90;;;;;;4967486;28;20154;-74
2022/01/19 09:54:33;;;;;;;3.67;1.63;;;19.80;99.90;;;;;;4973795;28;20062;-74
2022/01/19 09:57:00;;;;;;;7.18;2.00;;;19.80;99.90;;;;;;4973609;28;20030;-74
2022/01/19 09:59:28;;;;;;;7.13;1.88;;;19.80;99.90;;;;;;4976039;28;20105;-74
2022/01/19 10:02:07;;;;;;;5.10;0.95;;;19.80;99.90;;;;;;4967797;28;20043;-74
2022/01/19 10:04:44;;;;;;;5.25;1.58;;;19.80;99.90;;;;;;4971537;28;20035;-74
2022/01/19 10:07:18;;;;;;;8.95;0.93;;;19.80;99.90;;;;;;4969709;28;20504;-74
2022/01/19 10:09:56;;;;;;;4.40;0.90;;;19.80;99.90;;;;;;4976819;28;20101;-75
2022/01/19 10:18:19;;;;;;;2.95;1.58;;;19.70;99.90;;;;;;4964085;28;20053;-74
2022/01/19 10:21:03;;;;;;;10.15;2.13;;;19.70;99.90;;;;;;4975937;28;20022;-74
2022/01/19 10:23:44;;;;;;;5.15;1.73;;;19.70;99.90;;;;;;4975561;28;20034;-73
2022/01/19 10:26:15;;;;;;;2.58;0.82;;;19.70;99.90;;;;;;4972782;28;20030;-73
2022/01/19 10:29:07;;;;;;;3.97;0.75;;;19.70;99.90;;;;;;4970165;28;20479;-73
2022/01/19 10:31:37;;;;;;;11.80;1.77;;;19.70;99.90;;;;;;4969102;28;20406;-74
2022/01/19 10:34:17;;;;;;;8.30;1.20;;;19.70;99.90;;;;;;4969754;28;20019;-74
2022/01/19 10:36:55;;;;;;;5.50;0.98;;;19.70;99.90;;;;;;4968091;28;20022;-74
2022/01/19 10:39:24;;;;;;;3.88;1.00;;;19.70;99.90;;;;;;4971904;28;20027;-73
2022/01/19 10:42:05;;;;;;;5.85;0.85;;;19.70;99.90;;;;;;4970189;28;20395;-74
2022/01/19 10:44:35;;;;;;;7.57;1.13;;;19.60;99.90;;;;;;4972029;28;20181;-74
2022/01/19 10:47:03;;;;;;;6.65;1.02;;;19.60;99.90;;;;;;4968652;28;20030;-75
2022/01/19 10:49:53;;;;;;;5.68;0.90;;;19.60;99.90;;;;;;4972774;28;20358;-75
2022/01/19 10:52:34;;;;;;;9.30;1.15;;;19.50;99.90;;;;;;4968895;28;20022;-74
2022/01/19 10:55:04;;;;;;;20.13;2.65;;;19.50;99.90;;;;;;4985285;28;20038;-74
2022/01/19 10:57:33;;;;;;;8.35;1.05;;;19.40;99.90;;;;;;4971113;28;20417;-74
2022/01/19 11:00:23;;;;;;;5.10;1.35;;;19.40;99.90;;;;;;4974249;28;20097;-74
2022/01/19 11:02:53;;;;;;;5.63;0.82;;;19.40;99.90;;;;;;4966880;28;20026;-74
2022/01/19 11:05:42;;;;;;;4.90;1.30;;;19.30;99.90;;;;;;4975154;28;20147;-74
2022/01/19 11:08:10;;;;;;;6.18;1.17;;;19.30;99.90;;;;;;4963220;28;20031;-74
2022/01/19 11:10:38;;;;;;;4.65;1.27;;;19.30;99.90;;;;;;4972206;28;20398;-73
2022/01/19 11:13:13;;;;;;;10.07;1.13;;;19.20;99.90;;;;;;4973508;28;20046;-73
2022/01/19 11:15:44;;;;;;;6.67;1.20;;;19.20;99.90;;;;;;4964179;28;20026;-73
2022/01/19 11:18:12;;;;;;;4.05;0.80;;;19.20;99.90;;;;;;4965864;28;20042;-73
2022/01/19 11:20:47;;;;;;;8.93;1.10;;;19.20;99.90;;;;;;4970914;28;20030;-73
2022/01/19 11:23:45;;;;;;;4.60;2.03;;;19.20;99.90;;;;;;4967172;28;20085;-73
2022/01/19 11:26:23;;;;;;;6.15;1.05;;;19.10;99.90;;;;;;4964540;28;20031;-74
2022/01/19 11:28:51;;;;;;;4.43;1.65;;;19.20;99.90;;;;;;4982395;28;20065;-74
2022/01/19 11:31:24;;;;;;;8.25;1.50;;;19.10;99.90;;;;;;4978070;28;20109;-73
2022/01/19 11:33:56;;;;;;;4.32;0.77;;;19.10;99.90;;;;;;4967925;28;20038;-75
2022/01/19 11:36:34;;;;;;;10.90;1.23;;;19.00;99.90;;;;;;4965142;28;20038;-74
2022/01/19 11:39:17;;;;;;;5.57;1.27;;;19.00;99.90;;;;;;4972419;28;20015;-74
2022/01/19 11:41:54;;;;;;;5.43;1.30;;;19.00;99.90;;;;;;4969148;28;20035;-74
2022/01/19 11:44:30;;;;;;;2.17;0.60;;;18.90;99.90;;;;;;4970671;28;20058;-73
2022/01/19 11:47:18;;;;;;;13.18;2.00;;;18.90;99.90;;;;;;4973824;28;20104;-73
2022/01/19 11:50:06;;;;;;;4.43;0.93;;;18.80;99.90;;;;;;4969761;28;20027;-73
2022/01/19 11:52:39;;;;;;;5.63;0.80;;;18.90;99.90;;;;;;4971577;28;20034;-73
2022/01/19 11:55:14;;;;;;;6.57;1.02;;;18.90;99.90;;;;;;4966992;28;20019;-73
2022/01/19 11:57:45;;;;;;;3.30;0.80;;;18.90;99.90;;;;;;4969639;28;20050;-72
2022/01/19 12:00:12;;;;;;;2.83;0.68;;;18.90;99.90;;;;;;4970309;28;20034;-72
2022/01/19 12:02:59;;;;;;;7.10;1.00;;;19.00;99.90;;;;;;4967089;28;20103;-72
2022/01/19 12:05:39;;;;;;;11.23;1.35;;;19.10;99.90;;;;;;4966571;28;20023;-71
2022/01/19 12:08:29;;;;;;;8.75;0.88;;;19.10;99.90;;;;;;4967715;28;20027;-72
2022/01/19 12:11:11;;;;;;;5.57;0.70;;;19.20;99.90;;;;;;4966835;28;20324;-72
2022/01/19 12:14:01;;;;;;;7.60;1.20;;;19.20;99.90;;;;;;4966556;28;20035;-72
2022/01/19 12:19:19;;;;;;;4.97;1.33;;;19.30;99.90;;;;;;4966581;28;20043;-72
2022/01/19 12:22:00;;;;;;;8.52;1.00;;;19.40;99.90;;;;;;4971958;28;20114;-71
2022/01/19 12:24:38;;;;;;;7.10;1.00;;;19.40;99.90;;;;;;4966742;28;20097;-72
2022/01/19 12:27:15;;;;;;;5.80;0.93;;;19.50;99.90;;;;;;4966791;28;20027;-72
2022/01/19 12:30:00;;;;;;;13.43;0.98;;;19.50;99.90;;;;;;4960498;28;20074;-72
2022/01/19 12:32:27;;;;;;;4.00;0.80;;;19.60;99.90;;;;;;4961739;28;20034;-72
2022/01/19 12:35:08;;;;;;;5.25;1.23;;;19.60;99.90;;;;;;4966670;28;20078;-73
2022/01/19 12:37:52;;;;;;;6.78;1.83;;;19.60;99.90;;;;;;4963302;28;20057;-72
2022/01/19 12:40:21;;;;;;;6.88;1.00;;;19.70;99.90;;;;;;4966932;28;20034;-72
2022/01/19 12:42:55;;;;;;;4.93;1.27;;;19.70;99.90;;;;;;4975513;28;20038;-72
2022/01/19 12:45:28;;;;;;;2.92;0.50;;;19.70;99.90;;;;;;4983214;28;20026;-73
2022/01/19 12:48:02;;;;;;;6.40;1.20;;;19.70;99.90;;;;;;4971333;28;20046;-72
2022/01/19 12:50:29;;;;;;;3.83;0.60;;;19.70;99.90;;;;;;4969690;28;20366;-74
2022/01/19 12:53:00;;;;;;;6.25;1.00;;;19.70;99.90;;;;;;4977719;28;20026;-73
2022/01/19 12:55:36;;;;;;;6.03;0.77;;;19.80;99.90;;;;;;4978231;28;20038;-72
2022/01/19 12:58:12;;;;;;;5.63;0.60;;;19.80;99.90;;;;;;4974045;28;20046;-73
2022/01/19 13:00:39;;;;;;;;;;;19.80;99.90;;;;;;4969626;28;20474;-73
2022/01/19 13:03:23;;;;;;;5.97;1.15;;;19.80;99.90;;;;;;4970328;28;20317;-73
2022/01/19 13:06:05;;;;;;;1.52;0.35;;;19.80;99.90;;;;;;4971825;28;20041;-71
2022/01/19 13:08:44;;;;;;;7.78;1.58;;;19.80;99.90;;;;;;4968514;28;20030;-73
2022/01/19 13:11:33;;;;;;;4.55;0.90;;;19.80;99.90;;;;;;4968593;28;20089;-73
2022/01/19 13:14:04;;;;;;;4.22;0.50;;;19.70;99.90;;;;;;4972386;28;20038;-74
2022/01/19 13:16:53;;;;;;;7.22;1.50;;;19.60;99.90;;;;;;4971985;28;20125;-74
2022/01/19 13:19:29;;;;;;;3.47;1.05;;;19.50;99.90;;;;;;4977866;28;20038;-74
2022/01/19 13:22:06;;;;;;;6.00;0.93;;;19.50;99.90;;;;;;4967822;28;20113;-73
2022/01/19 13:24:37;;;;;;;7.70;1.20;;;19.50;99.90;;;;;;4972301;28;20031;-73
2022/01/19 13:27:10;;;;;;;6.43;1.30;;;19.40;99.90;;;;;;4969017;28;20031;-72
2022/01/19 13:29:47;;;;;;;5.85;0.77;;;19.40;99.90;;;;;;4976057;28;20199;-72
2022/01/19 13:32:20;;;;;;;5.78;1.20;;;19.50;99.90;;;;;;4976221;28;20023;-73
2022/01/19 13:34:54;;;;;;;4.82;0.80;;;19.40;99.90;;;;;;4972573;28;20334;-72
2022/01/19 13:37:24;;;;;;;19.27;1.17;;;19.40;99.90;;;;;;4971576;28;20042;-73
2022/01/19 13:40:03;;;;;;;5.30;0.90;;;19.50;99.90;;;;;;4988072;28;20030;-75
2022/01/19 13:42:37;;;;;;;2.97;0.55;;;19.50;99.90;;;;;;4967797;28;20502;-74
2022/01/19 13:45:13;;;;;;;2.42;0.60;;;19.40;99.90;;;;;;4970365;28;20126;-74
2022/01/19 13:48:43;;;;;;;;;;;19.40;99.90;;;;;;4965706;28;20039;-73
2022/01/19 13:50:48;;;;;;;3.50;0.68;;;19.40;99.90;;;;;;4970404;28;20417;-73
2022/01/19 13:53:24;;;;;;;6.38;1.20;;;19.40;99.90;;;;;;4973020;28;20030;-73
2022/01/19 13:55:51;;;;;;;11.20;1.70;;;19.40;99.90;;;;;;4982987;28;20047;-72
2022/01/19 13:58:19;;;;;;;3.08;0.68;;;19.40;99.90;;;;;;4969376;28;20641;-73
2022/01/19 14:00:58;;;;;;;11.43;0.93;;;19.30;99.90;;;;;;4970856;28;20109;-73
2022/01/19 14:03:43;;;;;;;6.60;1.10;;;19.40;99.90;;;;;;4970854;28;20022;-73
2022/01/19 14:06:27;;;;;;;8.45;2.10;;;19.40;99.90;;;;;;4970779;28;20027;-75
2022/01/19 14:09:14;;;;;;;6.28;1.85;;;19.50;99.90;;;;;;4970056;28;20097;-73
2022/01/19 14:11:45;;;;;;;8.80;0.90;;;19.50;99.90;;;;;;4969032;28;20041;-73
2022/01/19 14:14:20;;;;;;;7.93;1.50;;;19.60;99.90;;;;;;4971144;28;20043;-73
2022/01/19 14:16:49;;;;;;;4.40;0.65;;;19.60;99.90;;;;;;4971749;28;20038;-73
2022/01/19 14:19:26;;;;;;;18.75;1.35;;;19.70;99.90;;;;;;4973885;28;20049;-73
2022/01/19 14:22:07;;;;;;;2.90;0.95;;;19.70;99.90;;;;;;4969471;28;20050;-73
2022/01/19 14:24:47;;;;;;;3.90;0.90;;;19.70;99.90;;;;;;4970334;28;20378;-74
2022/01/19 14:27:31;;;;;;;8.45;1.65;;;19.80;99.90;;;;;;4968894;28;20034;-74
2022/01/19 14:30:23;;;;;;;6.22;1.42;;;19.80;99.90;;;;;;4971039;28;20049;-74